createdAt,value
2018-07-10T00:00:36.173Z,0.00
2018-07-10T00:01:36.184Z,0.00
2018-07-10T00:02:36.090Z,0.00
2018-07-10T00:03:36.185Z,0.00
2018-07-10T00:04:36.108Z,0.00
2018-07-10T00:05:36.110Z,0.00
2018-07-10T00:06:36.123Z,0.00
2018-07-10T00:07:36.136Z,0.00
2018-07-10T00:08:36.287Z,0.00
2018-07-10T00:09:36.166Z,0.00
2018-07-10T00:10:36.161Z,0.00
2018-07-10T00:11:36.181Z,0.00
2018-07-10T00:12:36.316Z,0.00
2018-07-10T00:13:36.205Z,0.00
2018-07-10T00:14:36.255Z,0.00
2018-07-10T00:15:36.233Z,0.00
2018-07-10T00:16:36.239Z,0.00
2018-07-10T00:17:36.375Z,0.00
2018-07-10T00:18:36.255Z,0.00
2018-07-10T00:19:36.420Z,0.00
2018-07-10T00:20:36.303Z,0.00
2018-07-10T00:21:36.423Z,0.00
2018-07-10T00:22:36.432Z,0.00
2018-07-10T00:23:36.325Z,0.00
2018-07-10T00:24:36.446Z,0.00
2018-07-10T00:25:36.353Z,0.00
2018-07-10T00:26:36.366Z,0.00
2018-07-10T00:27:36.491Z,0.00
2018-07-10T00:28:36.377Z,0.00
2018-07-10T00:29:36.543Z,0.00
2018-07-10T00:30:36.530Z,0.00
2018-07-10T00:31:36.413Z,0.00
2018-07-10T00:32:36.439Z,0.00
2018-07-10T00:33:36.438Z,0.00
2018-07-10T00:34:36.556Z,0.00
2018-07-10T00:35:36.471Z,0.00
2018-07-10T00:36:36.518Z,0.00
2018-07-10T00:37:36.486Z,0.00
2018-07-10T00:38:36.506Z,0.00
2018-07-10T00:39:36.633Z,0.00
2018-07-10T00:40:36.639Z,0.00
2018-07-10T00:41:36.530Z,0.00
2018-07-10T00:42:36.553Z,0.00
2018-07-10T00:43:36.682Z,0.00
2018-07-10T00:44:36.562Z,0.00
2018-07-10T00:45:36.687Z,0.00
2018-07-10T00:46:36.591Z,0.00
2018-07-10T00:47:36.731Z,0.00
2018-07-10T00:48:36.617Z,0.00
2018-07-10T00:49:36.636Z,0.00
2018-07-10T00:50:36.751Z,0.00
2018-07-10T00:51:36.659Z,0.00
2018-07-10T00:52:36.670Z,0.00
2018-07-10T00:53:36.686Z,0.00
2018-07-10T00:54:36.683Z,0.00
2018-07-10T00:55:36.922Z,0.00
2018-07-10T00:56:36.716Z,0.00
2018-07-10T00:57:36.846Z,0.00
2018-07-10T00:58:36.746Z,0.00
2018-07-10T00:59:36.744Z,0.00
2018-07-10T01:00:36.872Z,0.00
2018-07-10T01:01:36.777Z,0.00
2018-07-10T01:02:36.780Z,0.00
2018-07-10T01:03:36.792Z,0.00
2018-07-10T01:04:36.804Z,0.00
2018-07-10T01:05:36.929Z,0.00
2018-07-10T01:06:36.836Z,0.00
2018-07-10T01:07:36.886Z,0.00
2018-07-10T01:08:36.864Z,0.00
2018-07-10T01:09:36.916Z,0.00
2018-07-10T01:10:37.045Z,0.00
2018-07-10T01:11:36.903Z,0.00
2018-07-10T01:12:36.895Z,0.00
2018-07-10T01:13:36.931Z,0.00
2018-07-10T01:14:36.920Z,0.00
2018-07-10T01:15:37.105Z,0.00
2018-07-10T01:16:36.953Z,0.00
2018-07-10T01:17:36.993Z,0.00
2018-07-10T01:18:36.964Z,0.00
2018-07-10T01:19:36.988Z,0.00
2018-07-10T01:20:37.111Z,0.00
2018-07-10T01:21:37.008Z,0.00
2018-07-10T01:22:37.020Z,0.00
2018-07-10T01:23:37.080Z,0.00
2018-07-10T01:24:37.044Z,0.00
2018-07-10T01:25:37.161Z,0.00
2018-07-10T01:26:37.189Z,0.00
2018-07-10T01:27:37.071Z,0.00
2018-07-10T01:28:37.212Z,0.00
2018-07-10T01:29:37.101Z,0.00
2018-07-10T01:30:37.215Z,0.00
2018-07-10T01:31:37.137Z,0.00
2018-07-10T01:32:37.140Z,0.00
2018-07-10T01:33:37.276Z,0.00
2018-07-10T01:34:37.151Z,0.00
2018-07-10T01:35:37.284Z,0.00
2018-07-10T01:36:37.192Z,0.00
2018-07-10T01:37:37.317Z,0.00
2018-07-10T01:38:37.215Z,0.00
2018-07-10T01:39:37.231Z,0.00
2018-07-10T01:40:37.325Z,0.00
2018-07-10T01:41:37.260Z,0.00
2018-07-10T01:42:37.258Z,0.00
2018-07-10T01:43:37.268Z,0.00
2018-07-10T01:44:37.274Z,0.00
2018-07-10T01:45:37.395Z,0.00
2018-07-10T01:46:37.317Z,0.00
2018-07-10T01:47:37.320Z,0.00
2018-07-10T01:48:37.346Z,0.00
2018-07-10T01:49:37.344Z,0.00
2018-07-10T01:50:37.436Z,0.00
2018-07-10T01:51:37.366Z,0.00
2018-07-10T01:52:37.365Z,0.00
2018-07-10T01:53:37.378Z,0.00
2018-07-10T01:54:37.387Z,0.00
2018-07-10T01:55:37.394Z,0.00
2018-07-10T01:56:37.667Z,0.00
2018-07-10T01:57:37.468Z,0.00
2018-07-10T01:58:37.439Z,0.00
2018-07-10T01:59:37.437Z,0.00
2018-07-10T02:00:37.456Z,0.00
2018-07-10T02:01:37.556Z,0.00
2018-07-10T02:02:37.490Z,0.00
2018-07-10T02:03:37.609Z,0.00
2018-07-10T02:04:37.490Z,0.00
2018-07-10T02:05:37.523Z,0.00
2018-07-10T02:06:37.618Z,0.00
2018-07-10T02:07:37.529Z,0.00
2018-07-10T02:08:37.531Z,0.00
2018-07-10T02:09:37.549Z,0.00
2018-07-10T02:10:37.567Z,0.00
2018-07-10T02:11:37.801Z,0.00
2018-07-10T02:12:37.633Z,0.00
2018-07-10T02:13:37.609Z,0.00
2018-07-10T02:14:37.651Z,0.00
2018-07-10T02:15:37.616Z,0.00
2018-07-10T02:16:37.721Z,0.00
2018-07-10T02:17:37.646Z,0.00
2018-07-10T02:18:37.662Z,0.00
2018-07-10T02:19:37.684Z,0.00
2018-07-10T02:20:37.681Z,0.00
2018-07-10T02:21:37.806Z,0.00
2018-07-10T02:22:37.694Z,0.00
2018-07-10T02:23:37.710Z,0.00
2018-07-10T02:24:37.732Z,0.00
2018-07-10T02:25:37.749Z,0.00
2018-07-10T02:26:37.850Z,0.00
2018-07-10T02:27:37.769Z,0.00
2018-07-10T02:28:37.770Z,0.00
2018-07-10T02:29:37.780Z,0.00
2018-07-10T02:30:37.789Z,0.00
2018-07-10T02:31:37.903Z,0.00
2018-07-10T02:32:37.933Z,0.00
2018-07-10T02:33:37.830Z,0.00
2018-07-10T02:34:37.821Z,0.00
2018-07-10T02:35:37.848Z,0.00
2018-07-10T02:36:37.970Z,0.00
2018-07-10T02:37:37.868Z,0.00
2018-07-10T02:38:37.887Z,0.00
2018-07-10T02:39:37.889Z,0.00
2018-07-10T02:40:37.939Z,0.00
2018-07-10T02:41:38.016Z,0.00
2018-07-10T02:42:37.927Z,0.00
2018-07-10T02:43:37.924Z,0.00
2018-07-10T02:44:37.953Z,0.00
2018-07-10T02:45:37.948Z,0.00
2018-07-10T02:46:38.064Z,0.00
2018-07-10T02:47:37.968Z,0.00
2018-07-10T02:48:37.987Z,0.00
2018-07-10T02:49:37.994Z,0.00
2018-07-10T02:50:38.129Z,0.00
2018-07-10T02:51:38.111Z,0.00
2018-07-10T02:52:38.036Z,0.00
2018-07-10T02:53:38.163Z,0.00
2018-07-10T02:54:38.059Z,0.00
2018-07-10T02:55:38.052Z,0.00
2018-07-10T02:56:38.295Z,0.00
2018-07-10T02:57:38.085Z,0.00
2018-07-10T02:58:38.092Z,0.00
2018-07-10T02:59:38.104Z,0.00
2018-07-10T03:00:38.124Z,0.00
2018-07-10T03:01:38.221Z,0.00
2018-07-10T03:02:38.138Z,0.00
2018-07-10T03:03:38.142Z,0.00
2018-07-10T03:04:38.167Z,0.00
2018-07-10T03:05:38.169Z,0.00
2018-07-10T03:06:38.281Z,0.00
2018-07-10T03:07:38.204Z,0.00
2018-07-10T03:08:38.246Z,0.00
2018-07-10T03:09:38.337Z,0.00
2018-07-10T03:10:38.221Z,0.00
2018-07-10T03:11:38.334Z,0.00
2018-07-10T03:12:38.367Z,0.00
2018-07-10T03:13:38.256Z,0.00
2018-07-10T03:14:38.393Z,0.00
2018-07-10T03:15:38.277Z,0.00
2018-07-10T03:16:38.281Z,0.00
2018-07-10T03:17:38.350Z,0.00
2018-07-10T03:18:38.297Z,0.00
2018-07-10T03:19:38.320Z,0.00
2018-07-10T03:20:38.448Z,0.00
2018-07-10T03:21:38.351Z,0.00
2018-07-10T03:22:38.577Z,0.00
2018-07-10T03:23:38.488Z,0.00
2018-07-10T03:24:38.374Z,0.00
2018-07-10T03:25:38.379Z,0.00
2018-07-10T03:26:38.516Z,0.00
2018-07-10T03:27:38.499Z,0.00
2018-07-10T03:28:38.537Z,0.00
2018-07-10T03:29:38.415Z,0.00
2018-07-10T03:30:38.431Z,0.00
2018-07-10T03:31:38.567Z,0.00
2018-07-10T03:32:38.579Z,0.00
2018-07-10T03:33:38.571Z,0.00
2018-07-10T03:34:38.476Z,0.00
2018-07-10T03:35:38.491Z,0.00
2018-07-10T03:36:38.508Z,0.00
2018-07-10T03:37:38.505Z,0.00
2018-07-10T03:38:38.662Z,0.00
2018-07-10T03:39:38.536Z,0.00
2018-07-10T03:40:38.663Z,0.00
2018-07-10T03:41:38.550Z,0.00
2018-07-10T03:42:38.686Z,0.00
2018-07-10T03:43:38.676Z,0.00
2018-07-10T03:44:38.608Z,0.00
2018-07-10T03:45:38.605Z,0.00
2018-07-10T03:46:38.604Z,0.00
2018-07-10T03:47:38.618Z,0.00
2018-07-10T03:48:38.742Z,0.00
2018-07-10T03:49:38.761Z,0.00
2018-07-10T03:50:38.682Z,0.00
2018-07-10T03:51:38.652Z,0.00
2018-07-10T03:52:38.664Z,0.00
2018-07-10T03:53:38.722Z,0.00
2018-07-10T03:54:38.695Z,0.00
2018-07-10T03:55:38.693Z,0.00
2018-07-10T03:56:38.719Z,0.00
2018-07-10T03:57:38.758Z,0.00
2018-07-10T03:58:38.825Z,0.00
2018-07-10T03:59:38.741Z,0.00
2018-07-10T04:00:38.746Z,0.00
2018-07-10T04:01:38.792Z,0.00
2018-07-10T04:02:38.837Z,0.00
2018-07-10T04:03:38.886Z,0.00
2018-07-10T04:04:38.795Z,0.00
2018-07-10T04:05:38.808Z,0.00
2018-07-10T04:06:38.818Z,0.00
2018-07-10T04:07:38.949Z,0.00
2018-07-10T04:08:38.935Z,0.00
2018-07-10T04:09:38.859Z,0.00
2018-07-10T04:10:38.860Z,0.00
2018-07-10T04:11:38.920Z,0.00
2018-07-10T04:12:38.882Z,0.00
2018-07-10T04:13:38.992Z,0.00
2018-07-10T04:14:38.909Z,0.00
2018-07-10T04:15:39.033Z,0.00
2018-07-10T04:16:39.041Z,0.00
2018-07-10T04:17:38.942Z,0.00
2018-07-10T04:18:39.058Z,0.00
2018-07-10T04:19:38.941Z,0.00
2018-07-10T04:20:38.969Z,0.00
2018-07-10T04:21:38.974Z,0.00
2018-07-10T04:22:39.102Z,0.00
2018-07-10T04:23:39.199Z,0.00
2018-07-10T04:24:39.011Z,0.00
2018-07-10T04:25:39.018Z,0.00
2018-07-10T04:26:39.145Z,0.00
2018-07-10T04:27:39.039Z,0.00
2018-07-10T04:28:39.140Z,0.00
2018-07-10T04:29:39.047Z,0.00
2018-07-10T04:30:39.064Z,0.00
2018-07-10T04:31:39.195Z,0.00
2018-07-10T04:32:39.084Z,0.00
2018-07-10T04:33:39.095Z,0.00
2018-07-10T04:34:39.197Z,0.00
2018-07-10T04:35:39.121Z,0.00
2018-07-10T04:36:39.115Z,0.00
2018-07-10T04:37:39.170Z,0.00
2018-07-10T04:38:39.150Z,0.00
2018-07-10T04:39:39.259Z,0.00
2018-07-10T04:40:39.287Z,0.00
2018-07-10T04:41:39.176Z,0.00
2018-07-10T04:42:39.189Z,0.00
2018-07-10T04:43:39.195Z,0.00
2018-07-10T04:44:39.296Z,0.00
2018-07-10T04:45:39.211Z,0.00
2018-07-10T04:46:39.225Z,0.00
2018-07-10T04:47:39.355Z,0.00
2018-07-10T04:48:39.240Z,0.00
2018-07-10T04:49:39.475Z,0.00
2018-07-10T04:50:39.387Z,0.00
2018-07-10T04:51:39.397Z,0.00
2018-07-10T04:52:39.289Z,0.00
2018-07-10T04:53:39.300Z,0.00
2018-07-10T04:54:39.626Z,0.00
2018-07-10T04:55:39.316Z,0.00
2018-07-10T04:56:39.326Z,0.00
2018-07-10T04:57:39.455Z,0.00
2018-07-10T04:58:39.353Z,0.00
2018-07-10T04:59:39.405Z,0.00
2018-07-10T05:00:39.487Z,0.00
2018-07-10T05:01:39.496Z,0.00
2018-07-10T05:02:39.373Z,0.00
2018-07-10T05:03:39.391Z,0.00
2018-07-10T05:04:39.624Z,0.00
2018-07-10T05:05:39.409Z,0.00
2018-07-10T05:06:39.544Z,0.00
2018-07-10T05:07:39.426Z,0.00
2018-07-10T05:08:39.446Z,0.00
2018-07-10T05:09:39.676Z,0.00
2018-07-10T05:10:39.467Z,0.00
2018-07-10T05:11:39.461Z,0.00
2018-07-10T05:12:39.606Z,0.00
2018-07-10T05:13:39.489Z,0.00
2018-07-10T05:14:39.676Z,0.00
2018-07-10T05:15:39.635Z,0.00
2018-07-10T05:16:39.645Z,0.00
2018-07-10T05:17:39.538Z,0.00
2018-07-10T05:18:39.744Z,0.00
2018-07-10T05:19:39.560Z,0.00
2018-07-10T05:20:39.686Z,0.00
2018-07-10T05:21:39.569Z,0.00
2018-07-10T05:22:39.705Z,0.00
2018-07-10T05:23:39.807Z,0.00
2018-07-10T05:24:39.615Z,0.00
2018-07-10T05:25:39.619Z,0.00
2018-07-10T05:26:39.746Z,0.00
2018-07-10T05:27:39.633Z,0.00
2018-07-10T05:28:39.824Z,0.00
2018-07-10T05:29:39.650Z,0.00
2018-07-10T05:30:39.652Z,0.00
2018-07-10T05:31:39.714Z,0.00
2018-07-10T05:32:39.812Z,0.00
2018-07-10T05:33:39.893Z,0.00
2018-07-10T05:34:39.826Z,0.00
2018-07-10T05:35:39.756Z,0.00
2018-07-10T05:36:39.732Z,0.00
2018-07-10T05:37:39.854Z,0.00
2018-07-10T05:38:39.937Z,0.00
2018-07-10T05:39:39.750Z,0.00
2018-07-10T05:40:39.886Z,0.00
2018-07-10T05:41:39.768Z,0.00
2018-07-10T05:42:39.783Z,0.00
2018-07-10T05:43:39.991Z,0.00
2018-07-10T05:44:39.926Z,0.00
2018-07-10T05:45:39.936Z,0.00
2018-07-10T05:46:39.945Z,0.00
2018-07-10T05:47:39.832Z,0.00
2018-07-10T05:48:39.935Z,0.00
2018-07-10T05:49:39.855Z,0.00
2018-07-10T05:50:39.869Z,0.00
2018-07-10T05:51:39.886Z,0.00
2018-07-10T05:52:39.880Z,0.00
2018-07-10T05:53:40.041Z,0.00
2018-07-10T05:54:39.913Z,0.00
2018-07-10T05:55:40.034Z,0.00
2018-07-10T05:56:40.044Z,0.00
2018-07-10T05:57:39.930Z,0.00
2018-07-10T05:58:40.187Z,0.00
2018-07-10T05:59:40.076Z,0.00
2018-07-10T06:00:40.088Z,0.00
2018-07-10T06:01:40.019Z,0.00
2018-07-10T06:02:39.979Z,0.00
2018-07-10T06:03:40.184Z,0.00
2018-07-10T06:04:40.167Z,0.00
2018-07-10T06:05:40.135Z,0.00
2018-07-10T06:06:40.071Z,0.00
2018-07-10T06:07:40.076Z,0.00
2018-07-10T06:08:40.247Z,0.00
2018-07-10T06:09:40.175Z,0.00
2018-07-10T06:10:40.188Z,0.00
2018-07-10T06:11:40.196Z,0.00
2018-07-10T06:12:40.208Z,0.00
2018-07-10T06:13:40.297Z,0.00
2018-07-10T06:14:40.225Z,0.00
2018-07-10T06:15:40.237Z,0.00
2018-07-10T06:16:40.123Z,0.00
2018-07-10T06:17:40.142Z,0.00
2018-07-10T06:18:40.151Z,0.00
2018-07-10T06:19:40.377Z,0.00
2018-07-10T06:20:40.159Z,0.00
2018-07-10T06:21:40.185Z,0.00
2018-07-10T06:22:40.308Z,0.00
2018-07-10T06:23:40.204Z,0.00
2018-07-10T06:24:40.231Z,0.00
2018-07-10T06:25:40.306Z,0.00
2018-07-10T06:26:40.268Z,0.00
2018-07-10T06:27:40.352Z,0.00
2018-07-10T06:28:40.240Z,0.00
2018-07-10T06:29:40.241Z,0.00
2018-07-10T06:30:40.256Z,0.00
2018-07-10T06:31:40.362Z,0.00
2018-07-10T06:32:40.274Z,0.00
2018-07-10T06:33:40.412Z,0.00
2018-07-10T06:34:40.421Z,0.00
2018-07-10T06:35:40.306Z,0.00
2018-07-10T06:36:40.465Z,0.00
2018-07-10T06:37:40.333Z,0.00
2018-07-10T06:38:40.328Z,0.00
2018-07-10T06:39:40.405Z,0.00
2018-07-10T06:40:40.479Z,0.00
2018-07-10T06:41:40.365Z,0.00
2018-07-10T06:42:40.695Z,0.00
2018-07-10T06:43:40.505Z,0.00
2018-07-10T06:44:40.400Z,0.00
2018-07-10T06:45:40.527Z,0.00
2018-07-10T06:46:40.405Z,0.00
2018-07-10T06:47:40.544Z,0.00
2018-07-10T06:48:40.533Z,0.00
2018-07-10T06:49:40.450Z,0.00
2018-07-10T06:50:40.572Z,0.00
2018-07-10T06:51:40.461Z,0.00
2018-07-10T06:52:40.629Z,0.00
2018-07-10T06:53:40.546Z,0.00
2018-07-10T06:54:40.600Z,0.00
2018-07-10T06:55:40.622Z,0.00
2018-07-10T06:56:40.505Z,0.00
2018-07-10T06:57:40.645Z,0.00
2018-07-10T06:58:40.529Z,0.00
2018-07-10T06:59:40.630Z,0.00
2018-07-10T07:00:40.679Z,0.00
2018-07-10T07:01:40.556Z,0.00
2018-07-10T07:02:40.566Z,0.00
2018-07-10T07:03:40.590Z,0.00
2018-07-10T07:04:40.704Z,0.00
2018-07-10T07:05:40.603Z,0.00
2018-07-10T07:06:40.732Z,0.00
2018-07-10T07:07:40.791Z,0.00
2018-07-10T07:08:40.752Z,0.00
2018-07-10T07:09:40.734Z,0.00
2018-07-10T07:10:40.642Z,0.00
2018-07-10T07:11:40.658Z,0.00
2018-07-10T07:12:40.793Z,0.00
2018-07-10T07:13:40.685Z,0.00
2018-07-10T07:14:40.783Z,0.00
2018-07-10T07:15:40.713Z,0.00
2018-07-10T07:16:40.698Z,0.00
2018-07-10T07:17:40.726Z,0.00
2018-07-10T07:18:40.766Z,0.00
2018-07-10T07:19:40.946Z,0.00
2018-07-10T07:20:40.746Z,0.00
2018-07-10T07:21:40.764Z,0.00
2018-07-10T07:22:40.889Z,0.00
2018-07-10T07:23:40.795Z,0.00
2018-07-10T07:24:41.009Z,0.00
2018-07-10T07:25:40.796Z,0.00
2018-07-10T07:26:40.927Z,0.00
2018-07-10T07:27:40.818Z,0.00
2018-07-10T07:28:40.819Z,0.00
2018-07-10T07:29:41.060Z,0.00
2018-07-10T07:30:40.841Z,0.00
2018-07-10T07:31:40.897Z,0.00
2018-07-10T07:32:40.988Z,0.00
2018-07-10T07:33:40.916Z,0.00
2018-07-10T07:34:41.081Z,0.00
2018-07-10T07:35:40.896Z,0.00
2018-07-10T07:36:41.029Z,0.00
2018-07-10T07:37:41.040Z,0.00
2018-07-10T07:38:40.922Z,0.00
2018-07-10T07:39:41.031Z,0.00
2018-07-10T07:40:40.946Z,0.00
2018-07-10T07:41:40.944Z,0.00
2018-07-10T07:42:41.083Z,0.00
2018-07-10T07:43:41.070Z,0.00
2018-07-10T07:44:41.185Z,0.00
2018-07-10T07:45:41.003Z,0.00
2018-07-10T07:46:41.039Z,0.00
2018-07-10T07:47:41.004Z,0.00
2018-07-10T07:48:41.017Z,0.00
2018-07-10T07:49:41.029Z,0.00
2018-07-10T07:50:41.265Z,0.00
2018-07-10T07:51:41.046Z,0.00
2018-07-10T07:52:41.191Z,0.00
2018-07-10T07:53:41.195Z,0.00
2018-07-10T07:54:41.084Z,0.00
2018-07-10T07:55:41.149Z,0.00
2018-07-10T07:56:41.226Z,0.00
2018-07-10T07:57:41.116Z,0.00
2018-07-10T07:58:41.330Z,0.00
2018-07-10T07:59:41.131Z,0.00
2018-07-10T08:00:41.134Z,0.00
2018-07-10T08:01:41.273Z,0.00
2018-07-10T08:02:41.169Z,0.00
2018-07-10T08:03:41.375Z,0.00
2018-07-10T08:04:41.172Z,0.00
2018-07-10T08:05:41.316Z,0.00
2018-07-10T08:06:41.202Z,0.00
2018-07-10T08:07:41.216Z,0.00
2018-07-10T08:08:41.240Z,0.00
2018-07-10T08:09:41.327Z,0.00
2018-07-10T08:10:41.366Z,0.00
2018-07-10T08:11:41.249Z,0.00
2018-07-10T08:12:41.385Z,0.00
2018-07-10T08:13:41.274Z,0.00
2018-07-10T08:14:41.296Z,0.00
2018-07-10T08:15:41.515Z,0.00
2018-07-10T08:16:41.300Z,0.00
2018-07-10T08:17:41.435Z,0.00
2018-07-10T08:18:41.444Z,0.00
2018-07-10T08:19:41.335Z,0.00
2018-07-10T08:20:41.664Z,0.00
2018-07-10T08:21:41.474Z,0.00
2018-07-10T08:22:41.369Z,0.00
2018-07-10T08:23:41.365Z,0.00
2018-07-10T08:24:41.506Z,0.00
2018-07-10T08:25:41.516Z,0.00
2018-07-10T08:26:41.577Z,0.00
2018-07-10T08:27:41.415Z,0.00
2018-07-10T08:28:41.628Z,0.00
2018-07-10T08:29:41.555Z,0.00
2018-07-10T08:30:41.566Z,0.00
2018-07-10T08:31:41.447Z,0.00
2018-07-10T08:32:41.496Z,0.00
2018-07-10T08:33:41.596Z,0.00
2018-07-10T08:34:41.584Z,0.00
2018-07-10T08:35:41.508Z,0.00
2018-07-10T08:36:41.623Z,0.00
2018-07-10T08:37:41.635Z,0.00
2018-07-10T08:38:41.645Z,0.00
2018-07-10T08:39:41.576Z,0.00
2018-07-10T08:40:41.551Z,0.00
2018-07-10T08:41:41.759Z,0.00
2018-07-10T08:42:41.684Z,0.00
2018-07-10T08:43:41.581Z,0.00
2018-07-10T08:44:41.581Z,0.00
2018-07-10T08:45:41.716Z,0.00
2018-07-10T08:46:41.694Z,0.00
2018-07-10T08:47:41.734Z,0.00
2018-07-10T08:48:41.635Z,0.00
2018-07-10T08:49:41.640Z,0.00
2018-07-10T08:50:41.656Z,0.00
2018-07-10T08:51:41.872Z,0.00
2018-07-10T08:52:41.656Z,0.00
2018-07-10T08:53:41.680Z,0.00
2018-07-10T08:54:41.671Z,0.00
2018-07-10T08:55:41.691Z,0.00
2018-07-10T08:56:41.821Z,0.00
2018-07-10T08:57:41.756Z,0.00
2018-07-10T08:58:41.717Z,0.00
2018-07-10T08:59:41.736Z,0.00
2018-07-10T09:00:41.847Z,0.00
2018-07-10T09:01:41.795Z,0.00
2018-07-10T09:02:41.764Z,0.00
2018-07-10T09:03:41.771Z,0.00
2018-07-10T09:04:41.788Z,0.00
2018-07-10T09:05:41.838Z,0.00
2018-07-10T09:06:41.786Z,0.00
2018-07-10T09:07:41.898Z,0.00
2018-07-10T09:08:41.936Z,0.00
2018-07-10T09:09:41.818Z,0.00
2018-07-10T09:10:41.826Z,0.00
2018-07-10T09:11:41.844Z,0.00
2018-07-10T09:12:41.890Z,0.00
2018-07-10T09:13:42.084Z,0.00
2018-07-10T09:14:41.867Z,0.00
2018-07-10T09:15:41.870Z,0.00
2018-07-10T09:16:41.902Z,0.00
2018-07-10T09:17:41.899Z,0.00
2018-07-10T09:18:42.107Z,0.00
2018-07-10T09:19:42.035Z,0.00
2018-07-10T09:20:42.047Z,0.00
2018-07-10T09:21:41.974Z,0.00
2018-07-10T09:22:41.934Z,0.00
2018-07-10T09:23:42.046Z,0.00
2018-07-10T09:24:41.956Z,0.00
2018-07-10T09:25:41.971Z,0.00
2018-07-10T09:26:41.967Z,0.00
2018-07-10T09:27:41.980Z,0.00
2018-07-10T09:28:42.268Z,0.00
2018-07-10T09:29:42.004Z,0.00
2018-07-10T09:30:42.135Z,0.00
2018-07-10T09:31:42.040Z,0.00
2018-07-10T09:32:42.033Z,0.00
2018-07-10T09:33:42.373Z,0.00
2018-07-10T09:34:42.053Z,0.00
2018-07-10T09:35:42.060Z,0.00
2018-07-10T09:36:42.083Z,0.00
2018-07-10T09:37:42.088Z,0.00
2018-07-10T09:38:42.080Z,0.00
2018-07-10T09:39:42.319Z,0.00
2018-07-10T09:40:42.104Z,0.00
2018-07-10T09:41:42.237Z,0.00
2018-07-10T09:42:42.245Z,0.00
2018-07-10T09:43:42.143Z,0.00
2018-07-10T09:44:42.156Z,0.00
2018-07-10T09:45:42.253Z,0.00
2018-07-10T09:46:42.170Z,0.00
2018-07-10T09:47:42.171Z,0.00
2018-07-10T09:48:42.168Z,0.00
2018-07-10T09:49:42.313Z,0.00
2018-07-10T09:50:42.292Z,0.00
2018-07-10T09:51:42.328Z,0.00
2018-07-10T09:52:42.338Z,5.63
2018-07-10T09:53:42.230Z,5.63
2018-07-10T09:54:42.327Z,5.63
2018-07-10T09:55:42.252Z,5.63
2018-07-10T09:56:42.473Z,5.63
2018-07-10T09:57:42.261Z,5.63
2018-07-10T09:58:42.270Z,11.25
2018-07-10T09:59:42.296Z,11.25
2018-07-10T10:00:42.306Z,11.25
2018-07-10T10:01:42.391Z,11.25
2018-07-10T10:02:42.315Z,11.25
2018-07-10T10:03:42.311Z,11.25
2018-07-10T10:04:42.448Z,11.25
2018-07-10T10:05:42.328Z,11.25
2018-07-10T10:06:42.515Z,11.25
2018-07-10T10:07:42.355Z,16.88
2018-07-10T10:08:42.362Z,22.50
2018-07-10T10:09:42.363Z,22.50
2018-07-10T10:10:42.380Z,16.88
2018-07-10T10:11:42.497Z,16.88
2018-07-10T10:12:42.403Z,16.88
2018-07-10T10:13:42.530Z,22.50
2018-07-10T10:14:42.425Z,28.13
2018-07-10T10:15:42.427Z,33.75
2018-07-10T10:16:42.661Z,39.38
2018-07-10T10:17:42.454Z,39.38
2018-07-10T10:18:42.491Z,33.75
2018-07-10T10:19:42.588Z,33.75
2018-07-10T10:20:42.477Z,39.38
2018-07-10T10:21:42.594Z,45.00
2018-07-10T10:22:42.534Z,50.63
2018-07-10T10:23:42.624Z,50.63
2018-07-10T10:24:42.520Z,50.63
2018-07-10T10:25:42.546Z,56.25
2018-07-10T10:26:42.856Z,61.88
2018-07-10T10:27:42.663Z,78.75
2018-07-10T10:28:42.545Z,90.00
2018-07-10T10:29:42.565Z,95.63
2018-07-10T10:30:42.566Z,95.63
2018-07-10T10:31:42.744Z,95.63
2018-07-10T10:32:42.710Z,101.25
2018-07-10T10:33:42.599Z,106.88
2018-07-10T10:34:42.606Z,112.50
2018-07-10T10:35:42.776Z,118.13
2018-07-10T10:36:42.799Z,123.75
2018-07-10T10:37:42.635Z,118.13
2018-07-10T10:38:42.644Z,123.75
2018-07-10T10:39:42.760Z,129.38
2018-07-10T10:40:42.668Z,135.00
2018-07-10T10:41:42.674Z,123.75
2018-07-10T10:42:42.681Z,106.88
2018-07-10T10:43:42.710Z,112.50
2018-07-10T10:44:42.756Z,106.88
2018-07-10T10:45:42.712Z,106.88
2018-07-10T10:46:42.727Z,106.88
2018-07-10T10:47:42.859Z,101.25
2018-07-10T10:48:42.748Z,106.88
2018-07-10T10:49:42.864Z,101.25
2018-07-10T10:50:42.776Z,101.25
2018-07-10T10:51:42.897Z,101.25
2018-07-10T10:52:42.788Z,106.88
2018-07-10T10:53:42.917Z,118.13
2018-07-10T10:54:42.977Z,140.63
2018-07-10T10:55:42.939Z,151.88
2018-07-10T10:56:42.948Z,168.75
2018-07-10T10:57:42.959Z,180.00
2018-07-10T10:58:42.852Z,185.63
2018-07-10T10:59:43.177Z,191.25
2018-07-10T11:00:42.874Z,202.50
2018-07-10T11:01:42.868Z,213.75
2018-07-10T11:02:43.016Z,219.38
2018-07-10T11:03:42.895Z,219.38
2018-07-10T11:04:42.943Z,247.50
2018-07-10T11:05:43.012Z,292.50
2018-07-10T11:06:42.970Z,303.75
2018-07-10T11:07:42.946Z,303.75
2018-07-10T11:08:42.938Z,298.13
2018-07-10T11:09:42.960Z,292.50
2018-07-10T11:10:43.065Z,281.25
2018-07-10T11:11:42.975Z,270.00
2018-07-10T11:12:42.998Z,264.38
2018-07-10T11:13:42.997Z,264.38
2018-07-10T11:14:43.012Z,270.00
2018-07-10T11:15:43.117Z,270.00
2018-07-10T11:16:43.157Z,275.63
2018-07-10T11:17:43.081Z,258.75
2018-07-10T11:18:43.076Z,225.00
2018-07-10T11:19:43.068Z,191.25
2018-07-10T11:20:43.184Z,174.38
2018-07-10T11:21:43.210Z,185.63
2018-07-10T11:22:43.103Z,196.88
2018-07-10T11:23:43.118Z,180.00
2018-07-10T11:24:43.120Z,174.38
2018-07-10T11:25:43.284Z,174.38
2018-07-10T11:26:43.146Z,174.38
2018-07-10T11:27:43.272Z,174.38
2018-07-10T11:28:43.170Z,185.63
2018-07-10T11:29:43.169Z,180.00
2018-07-10T11:30:43.404Z,163.13
2018-07-10T11:31:43.202Z,163.13
2018-07-10T11:32:43.330Z,163.13
2018-07-10T11:33:43.224Z,151.88
2018-07-10T11:34:43.230Z,135.00
2018-07-10T11:35:43.360Z,129.38
2018-07-10T11:36:43.571Z,146.25
2018-07-10T11:37:43.260Z,163.13
2018-07-10T11:38:43.392Z,180.00
2018-07-10T11:39:43.274Z,213.75
2018-07-10T11:40:43.413Z,236.25
2018-07-10T11:41:43.394Z,253.13
2018-07-10T11:42:43.307Z,253.13
2018-07-10T11:43:43.336Z,230.63
2018-07-10T11:44:43.326Z,191.25
2018-07-10T11:45:43.357Z,180.00
2018-07-10T11:46:43.450Z,185.63
2018-07-10T11:47:43.357Z,196.88
2018-07-10T11:48:43.383Z,202.50
2018-07-10T11:49:43.376Z,202.50
2018-07-10T11:50:43.399Z,208.13
2018-07-10T11:51:43.568Z,202.50
2018-07-10T11:52:43.427Z,196.88
2018-07-10T11:53:43.429Z,185.63
2018-07-10T11:54:43.538Z,180.00
2018-07-10T11:55:43.451Z,185.63
2018-07-10T11:56:43.464Z,191.25
2018-07-10T11:57:43.467Z,208.13
2018-07-10T11:58:43.480Z,225.00
2018-07-10T11:59:43.596Z,236.25
2018-07-10T12:00:43.508Z,253.13
2018-07-10T12:01:43.637Z,298.13
2018-07-10T12:02:43.515Z,376.88
2018-07-10T12:03:43.555Z,427.50
2018-07-10T12:04:43.647Z,466.88
2018-07-10T12:05:43.567Z,483.75
2018-07-10T12:06:43.694Z,568.13
2018-07-10T12:07:43.578Z,596.25
2018-07-10T12:08:43.716Z,579.38
2018-07-10T12:09:43.699Z,573.75
2018-07-10T12:10:43.611Z,613.13
2018-07-10T12:11:43.635Z,573.75
2018-07-10T12:12:43.800Z,495.00
2018-07-10T12:13:43.665Z,427.50
2018-07-10T12:14:43.868Z,376.88
2018-07-10T12:15:43.668Z,320.63
2018-07-10T12:16:43.808Z,264.38
2018-07-10T12:17:43.692Z,236.25
2018-07-10T12:18:43.705Z,292.50
2018-07-10T12:19:43.819Z,382.50
2018-07-10T12:20:43.785Z,427.50
2018-07-10T12:21:43.747Z,444.38
2018-07-10T12:22:43.749Z,461.25
2018-07-10T12:23:43.893Z,455.63
2018-07-10T12:24:43.839Z,433.13
2018-07-10T12:25:43.809Z,416.25
2018-07-10T12:26:43.804Z,444.38
2018-07-10T12:27:43.913Z,450.00
2018-07-10T12:28:43.829Z,433.13
2018-07-10T12:29:43.834Z,393.75
2018-07-10T12:30:43.853Z,343.13
2018-07-10T12:31:43.866Z,298.13
2018-07-10T12:32:44.099Z,303.75
2018-07-10T12:33:43.889Z,405.00
2018-07-10T12:34:43.901Z,534.38
2018-07-10T12:35:43.916Z,562.50
2018-07-10T12:36:43.938Z,528.75
2018-07-10T12:37:44.030Z,472.50
2018-07-10T12:38:44.068Z,421.88
2018-07-10T12:39:43.959Z,388.13
2018-07-10T12:40:43.986Z,427.50
2018-07-10T12:41:44.030Z,495.00
2018-07-10T12:42:44.054Z,489.38
2018-07-10T12:43:44.006Z,506.25
2018-07-10T12:44:44.041Z,466.88
2018-07-10T12:45:44.038Z,421.88
2018-07-10T12:46:44.040Z,388.13
2018-07-10T12:47:44.202Z,399.38
2018-07-10T12:48:44.083Z,410.63
2018-07-10T12:49:44.084Z,399.38
2018-07-10T12:50:44.215Z,410.63
2018-07-10T12:51:44.176Z,455.63
2018-07-10T12:52:44.275Z,483.75
2018-07-10T12:53:44.139Z,472.50
2018-07-10T12:54:44.137Z,444.38
2018-07-10T12:55:44.155Z,506.25
2018-07-10T12:56:44.178Z,517.50
2018-07-10T12:57:44.342Z,540.00
2018-07-10T12:58:44.189Z,596.25
2018-07-10T12:59:44.324Z,562.50
2018-07-10T13:00:44.264Z,579.38
2018-07-10T13:01:44.350Z,545.63
2018-07-10T13:02:44.389Z,500.63
2018-07-10T13:03:44.258Z,416.25
2018-07-10T13:04:44.393Z,382.50
2018-07-10T13:05:44.289Z,371.25
2018-07-10T13:06:44.292Z,348.75